Latest Weather Observations for Adelaide Airport

IDS60901

Issued at 11:51 pm CST Friday 27 May 2016 (issued every 10 minutes, with the page automatically refreshed every 10 minutes)

About weather observations | Map of Adelaide area stations | Latest observations for Adelaide area | Other Formats
Station Details ID: 023034 Name: ADELAIDE AIRPORT Lat: -34.95 Lon: 138.52 Height: 2.0 m
Data from the previous 72 hours. | See also: Recent months at Adelaide Airport
Date/Time
CST
Tmp

°C
App
Tmp
°C
Dew
Point
°C
Rel
Hum
%
Delta-T

°C
Wind Press
QNH
hPa
Press
MSL
hPa
Rain
since
9 am
mm
Dir
 
Spd
km/h
Gust
km/h
Spd
kts
Gust
kts
27/11:30pm 13.5 7.1 8.7 73 2.4 W 32 39 17 21 1009.9 1009.9 8.0
27/11:00pm 14.0 6.9 6.5 60 3.6 WSW 33 44 18 24 1010.0 1010.0 8.0
27/10:30pm 13.8 9.4 7.3 65 3.2 SW 20 30 11 16 1009.8 1009.8 8.0
27/10:00pm 12.5 8.7 9.1 80 1.7 SSW 19 26 10 14 1009.9 1009.9 8.0
27/09:30pm 12.2 8.2 8.1 76 2.0 SSW 19 26 10 14 1009.9 1009.9 8.0
27/09:00pm 11.7 7.6 8.7 82 1.5 SSW 20 28 11 15 1009.8 1009.8 8.0
27/08:30pm 12.0 6.2 7.9 76 2.0 SSW 28 37 15 20 1009.8 1009.8 7.8
27/08:09pm 11.8 4.7 7.9 77 1.9 SSW 35 54 19 29 1009.4 1009.4 7.8
27/08:00pm 11.8 4.2 7.7 76 2.0 SSW 37 54 20 29 1009.2 1009.2 7.8
27/07:48pm 11.4 3.9 7.9 79 1.7 SSW 37 57 20 31 1009.2 1009.2 7.6
27/07:30pm 12.3 4.8 8.0 75 2.1 SSW 37 54 20 29 1009.1 1009.1 7.6
27/07:15pm 13.0 4.8 8.2 72 2.4 SW 41 59 22 32 1008.7 1008.7 7.6
27/07:00pm 13.4 5.1 7.9 69 2.7 SW 41 56 22 30 1008.2 1008.2 7.6
27/06:30pm 13.0 4.3 7.5 69 2.7 SW 43 54 23 29 1007.9 1007.9 7.6
27/06:00pm 12.5 3.8 7.8 73 2.3 WSW 43 56 23 30 1007.6 1007.6 7.6
27/05:38pm 12.3 4.3 8.9 80 1.7 W 41 52 22 28 1007.4 1007.4 7.0
27/05:30pm 13.0 5.5 7.9 71 2.5 W 37 52 20 28 1007.1 1007.1 7.0
27/05:00pm 13.1 5.5 5.9 61 3.4 WSW 35 50 19 27 1007.2 1007.2 7.0
27/04:30pm 13.1 5.9 5.7 61 3.5 W 33 41 18 22 1007.0 1007.0 7.0
27/04:00pm 13.2 6.0 6.0 61 3.4 WSW 33 48 18 26 1006.7 1006.7 7.0
27/03:30pm 12.0 4.9 8.1 77 1.9 W 35 59 19 32 1006.6 1006.6 6.8
27/03:26pm 11.8 4.8 8.4 80 1.7 W 35 59 19 32 1006.6 1006.6 6.8
27/03:00pm 13.4 7.5 7.7 68 2.8 W 28 37 15 20 1006.6 1006.6 6.6
27/02:30pm 13.1 7.1 6.9 66 3.0 W 28 35 15 19 1006.6 1006.6 6.6
27/02:00pm 13.4 8.1 7.0 65 3.1 WSW 24 33 13 18 1006.8 1006.8 6.6
27/01:30pm 11.4 4.4 8.6 83 1.4 WSW 35 46 19 25 1006.7 1006.7 6.6
27/01:18pm 11.3 3.5 8.2 81 1.5 WSW 39 56 21 30 1007.2 1007.2 6.6
27/01:00pm 11.5 1.8 9.1 85 1.2 WSW 50 67 27 36 1007.2 1007.2 6.2
27/12:46pm 11.5 3.5 10.3 92 0.6 W 43 61 23 33 1007.1 1007.1 5.4
27/12:36pm 12.3 5.2 9.5 83 1.4 W 37 48 20 26 1006.9 1006.9 4.2
27/12:30pm 12.9 6.0 8.7 75 2.1 W 35 46 19 25 1006.9 1006.9 4.0
27/12:00pm 13.0 7.7 9.7 80 1.7 W 28 33 15 18 1007.1 1007.1 4.0
27/11:51am 12.8 7.5 9.9 82 1.5 W 28 37 15 20 1007.2 1007.2 4.0
27/11:40am 12.2 5.8 8.4 77 1.9 W 32 43 17 23 1007.4 1007.4 3.8
27/11:30am 11.5 6.6 8.5 82 1.5 WNW 24 41 13 22 1007.5 1007.5 2.8
27/11:28am 12.4 7.7 9.2 81 1.6 NW 24 39 13 21 1007.6 1007.6 2.4
27/11:00am 14.4 11.8 10.6 78 2.0 WNW 15 24 8 13 1007.9 1007.9 2.0
27/10:50am 13.3 10.1 11.4 88 1.0 WNW 19 26 10 14 1008.0 1008.0 2.0
27/10:30am 12.0 4.2 8.4 78 1.8 WNW 39 57 21 31 1008.3 1008.3 1.6
27/10:22am 13.1 6.9 10.0 81 1.6 WNW 33 56 18 30 1008.3 1008.3 0.0
27/10:21am 13.6 7.5 9.9 78 1.9 WNW 32 48 17 26 1008.3 1008.3 0.0
27/10:00am 16.0 10.7 11.2 73 2.6 WNW 30 41 16 22 1008.1 1008.1 0.0
27/09:30am 15.8 9.9 10.5 71 2.8 WNW 32 43 17 23 1008.3 1008.3 0.0
27/09:00am 14.8 8.9 10.6 76 2.2 WNW 32 41 17 22 1008.6 1008.6 1.8
27/08:30am 14.7 8.8 10.3 75 2.3 WNW 32 39 17 21 1008.4 1008.4 1.8
27/08:00am 13.9 8.0 10.5 80 1.8 WNW 32 39 17 21 1008.4 1008.4 1.8
27/07:30am 14.9 8.0 10.3 74 2.4 WNW 37 52 20 28 1008.6 1008.6 1.8
27/07:00am 14.6 9.3 10.0 74 2.4 NW 28 37 15 20 1008.8 1008.8 1.8
27/06:30am 14.3 8.6 9.9 75 2.3 NW 30 41 16 22 1008.8 1008.8 1.8
27/06:23am 14.1 8.0 9.8 75 2.2 NW 32 41 17 22 1008.8 1008.8 1.8
27/06:00am 13.9 6.7 10.7 81 1.7 WNW 39 52 21 28 1008.7 1008.7 1.6
27/05:55am 14.1 7.6 10.5 79 1.9 NW 35 52 19 28 1008.9 1008.9 1.6
27/05:47am 15.0 12.7 11.9 82 1.7 NNW 15 43 8 23 1008.8 1008.8 1.6
27/05:30am 12.9 10.1 11.2 89 0.9 NNE 17 19 9 10 1008.9 1008.9 1.6
27/05:00am 12.0 8.8 11.2 95 0.4 NNE 19 26 10 14 1009.0 1009.0 1.6
27/04:36am 12.1 8.3 11.3 95 0.4 NNE 22 28 12 15 1009.4 1009.4 1.6
27/04:30am 12.3 8.6 11.5 95 0.4 NNE 22 28 12 15 1009.4 1009.4 1.6
27/04:00am 12.6 9.9 11.7 94 0.5 NNE 17 24 9 13 1009.6 1009.6 1.6
27/03:30am 12.2 10.1 11.2 94 0.5 NE 13 20 7 11 1009.8 1009.8 1.6
27/03:00am 11.7 9.1 10.7 94 0.5 NE 15 19 8 10 1010.1 1010.1 1.6
27/02:30am 11.7 9.9 10.7 94 0.5 NNE 11 13 6 7 1010.3 1010.3 1.6
27/02:00am 11.9 8.2 10.3 90 0.8 NNE 20 22 11 12 1010.5 1010.5 0.0
27/01:30am 11.7 8.6 10.3 91 0.7 NNE 17 20 9 11 1010.8 1010.8 0.0
27/01:00am 11.0 8.5 9.8 92 0.6 NE 13 15 7 8 1010.9 1010.9 0.0
27/12:30am 11.3 9.6 9.7 90 0.8 ENE 9 11 5 6 1011.0 1011.0 0.0
27/12:00am 14.4 12.1 10.4 77 2.1 NW 13 17 7 9 1011.1 1011.1 0.0
 
Date/Time
CST
Tmp

°C
App
Tmp
°C
Dew
Point
°C
Rel
Hum
%
Delta-T

°C
Wind Press
QNH
hPa
Press
MSL
hPa
Rain
since
9 am
mm
Dir
 
Spd
km/h
Gust
km/h
Spd
kts
Gust
kts
26/11:30pm 14.5 11.4 11.5 82 1.6 WNW 19 26 10 14 1011.2 1011.2 0.0
26/11:00pm 14.7 12.2 9.7 72 2.6 WNW 13 17 7 9 1011.5 1011.5 0.0
26/10:30pm 15.0 11.0 9.1 68 3.0 W 20 26 11 14 1011.6 1011.6 0.0
26/10:00pm 14.9 11.2 9.5 70 2.8 W 19 22 10 12 1011.9 1011.9 0.0
26/09:30pm 15.1 11.4 9.3 68 3.0 W 19 24 10 13 1012.0 1012.0 0.0
26/09:00pm 15.2 11.2 9.2 67 3.1 W 20 26 11 14 1012.1 1012.1 0.0
26/08:30pm 15.2 11.8 9.2 67 3.1 W 17 26 9 14 1012.1 1012.1 0.0
26/08:00pm 15.1 11.4 9.3 68 3.0 W 19 24 10 13 1011.8 1011.8 0.0
26/07:30pm 15.0 11.3 9.6 70 2.8 W 19 24 10 13 1011.5 1011.5 0.0
26/07:00pm 15.1 11.4 9.3 68 3.0 WSW 19 24 10 13 1011.4 1011.4 0.0
26/06:30pm 15.2 11.7 8.9 66 3.2 WSW 17 22 9 12 1011.2 1011.2 0.0
26/06:00pm 14.9 11.8 9.0 68 3.0 WSW 15 19 8 10 1010.9 1010.9 0.0
26/05:30pm 14.8 12.1 8.9 68 3.0 WSW 13 19 7 10 1010.7 1010.7 0.0
26/05:00pm 14.8 11.8 9.1 68 2.9 WSW 15 19 8 10 1010.5 1010.5 0.0
26/04:30pm 15.7 11.6 7.9 59 3.9 WSW 19 22 10 12 1010.3 1010.3 0.0
26/04:00pm 16.1 12.1 8.2 59 4.0 SW 19 24 10 13 1010.1 1010.1 0.0
26/03:30pm 16.2 12.4 7.6 56 4.3 SW 17 22 9 12 1009.9 1009.9 0.0
26/03:00pm 16.5 12.3 7.5 55 4.5 SW 19 24 10 13 1009.8 1009.8 0.0
26/02:30pm 16.6 12.2 7.2 54 4.7 WSW 20 26 11 14 1009.5 1009.5 0.0
26/02:00pm 16.3 12.1 8.2 58 4.1 SW 20 26 11 14 1009.5 1009.5 0.0
26/01:30pm 16.8 12.6 8.4 57 4.3 SW 20 28 11 15 1009.5 1009.5 0.0
26/01:00pm 16.4 11.8 8.3 58 4.1 SW 22 30 12 16 1010.1 1010.1 0.0
26/12:30pm 16.4 12.3 8.6 60 4.0 SW 20 26 11 14 1009.7 1009.7 0.0
26/12:00pm 16.2 11.6 8.1 58 4.1 SW 22 30 12 16 1009.9 1009.9 0.0
26/11:30am 16.0 11.5 8.5 61 3.8 SW 22 28 12 15 1009.9 1009.9 0.0
26/11:00am 16.3 12.2 8.7 60 3.9 SW 20 28 11 15 1010.1 1010.1 0.0
26/10:30am 15.4 12.0 7.8 60 3.8 SW 15 26 8 14 1010.0 1010.0 0.0
26/10:00am 15.6 12.1 8.7 63 3.5 SW 17 28 9 15 1010.0 1010.0 0.0
26/09:30am 14.7 13.9 11.1 79 1.9 S 6 7 3 4 1009.9 1009.9 0.0
26/09:00am 13.7 12.7 10.9 83 1.5 S 7 9 4 5 1009.6 1009.6 20.6
26/08:30am 12.3 11.1 10.4 88 1.0 SSE 7 11 4 6 1009.6 1009.6 20.6
26/08:00am 12.4 11.4 10.9 90 0.8 SSE 7 11 4 6 1009.4 1009.4 20.6
26/07:30am 13.0 12.3 11.3 89 0.9 SSE 6 22 3 12 1009.0 1009.0 20.6
26/07:00am 12.8 12.0 11.7 93 0.6 SSE 7 7 4 4 1008.8 1008.8 20.6
26/06:30am 13.0 13.5 11.7 92 0.7 CALM 0 0 0 0 1008.4 1008.4 20.6
26/06:00am 12.9 11.8 11.8 93 0.6 S 9 11 5 6 1008.2 1008.2 20.6
26/05:30am 13.3 11.8 12.0 92 0.7 S 11 15 6 8 1008.0 1008.0 20.6
26/05:00am 13.5 12.4 12.0 91 0.8 S 9 11 5 6 1007.7 1007.7 20.6
26/04:30am 13.6 12.1 11.9 89 0.9 S 11 13 6 7 1007.4 1007.4 20.2
26/04:00am 14.0 12.2 12.0 88 1.1 SSW 13 15 7 8 1007.3 1007.3 20.2
26/03:30am 14.2 12.8 12.2 88 1.1 SSW 11 17 6 9 1007.2 1007.2 20.0
26/03:00am 14.3 13.4 12.7 90 0.9 SSW 9 11 5 6 1007.0 1007.0 20.0
26/02:30am 14.0 14.2 12.9 93 0.6 S 4 7 2 4 1006.6 1006.6 20.0
26/02:00am 14.7 13.8 12.7 88 1.1 S 9 11 5 6 1006.5 1006.5 20.0
26/01:30am 14.6 13.5 13.2 91 0.8 SSW 11 15 6 8 1006.6 1006.6 20.0
26/01:00am 14.8 13.5 13.7 93 0.6 SSW 13 17 7 9 1006.5 1006.5 20.0
26/12:30am 14.4 12.7 13.5 94 0.5 SW 15 22 8 12 1006.7 1006.7 19.4
26/12:24am 14.2 10.7 13.3 94 0.5 WSW 24 35 13 19 1006.8 1006.8 19.2
26/12:07am 15.1 10.9 14.6 97 0.3 WNW 30 35 16 19 1006.9 1006.9 17.8
26/12:00am 15.2 11.7 14.5 96 0.4 NW 26 33 14 18 1006.8 1006.8 15.4
 
Date/Time
CST
Tmp

°C
App
Tmp
°C
Dew
Point
°C
Rel
Hum
%
Delta-T

°C
Wind Press
QNH
hPa
Press
MSL
hPa
Rain
since
9 am
mm
Dir
 
Spd
km/h
Gust
km/h
Spd
kts
Gust
kts
25/11:30pm 14.9 12.1 14.4 97 0.3 NNW 22 30 12 16 1006.6 1006.6 13.8
25/11:00pm 14.8 13.7 14.3 97 0.3 NNW 13 19 7 10 1006.8 1006.8 12.2
25/10:42pm 14.5 13.7 14.1 97 0.2 NNE 11 15 6 8 1006.9 1006.9 11.0
25/10:30pm 14.2 12.6 13.8 97 0.2 NE 15 19 8 10 1006.8 1006.8 10.6
25/10:00pm 13.9 11.8 13.5 97 0.2 NNE 17 24 9 13 1007.1 1007.1 9.6
25/09:30pm 13.8 11.6 13.4 97 0.2 NNE 17 19 9 10 1007.5 1007.5 8.4
25/09:00pm 13.8 12.0 13.4 97 0.2 NNE 15 19 8 10 1007.5 1007.5 7.2
25/08:30pm 13.9 12.5 13.4 97 0.3 NNE 13 15 7 8 1007.4 1007.4 5.6
25/08:00pm 13.9 12.4 13.2 96 0.4 N 13 17 7 9 1007.4 1007.4 5.2
25/07:35pm 14.0 11.2 13.1 94 0.5 N 20 28 11 15 1007.6 1007.6 4.6
25/07:30pm 14.0 11.7 13.1 94 0.5 N 17 28 9 15 1007.6 1007.6 4.2
25/07:00pm 14.0 11.4 13.1 94 0.5 N 19 28 10 15 1007.4 1007.4 4.0
25/06:30pm 14.2 11.4 13.3 94 0.5 N 20 30 11 16 1007.2 1007.2 3.8
25/06:00pm 14.5 11.3 13.1 91 0.8 N 22 30 12 16 1007.3 1007.3 3.2
25/05:30pm 14.5 10.8 12.7 89 1.0 N 24 35 13 19 1007.3 1007.3 3.2
25/05:00pm 14.4 11.0 12.6 89 1.0 N 22 33 12 18 1007.3 1007.3 3.2
25/04:52pm 14.5 11.0 12.3 87 1.2 N 22 28 12 15 1007.3 1007.3 3.2
25/04:47pm 14.4 10.5 12.2 87 1.2 N 24 30 13 16 1007.1 1007.1 3.2
25/04:30pm 14.2 8.8 12.2 88 1.1 N 32 41 17 22 1007.4 1007.4 3.2
25/04:29pm 14.2 8.7 12.0 87 1.2 N 32 41 17 22 1007.4 1007.4 3.2
25/04:26pm 14.4 8.8 12.0 85 1.3 N 33 46 18 25 1007.4 1007.4 2.8
25/04:23pm 14.8 9.2 11.6 81 1.7 N 32 46 17 25 1007.5 1007.5 2.6
25/04:00pm 15.1 10.7 11.8 81 1.8 N 26 39 14 21 1007.6 1007.6 2.6
25/03:30pm 15.3 10.7 12.4 83 1.6 N 28 37 15 20 1007.5 1007.5 2.4
25/03:00pm 15.0 12.9 12.4 84 1.4 N 15 20 8 11 1007.1 1007.1 2.4
25/02:30pm 14.7 13.0 12.3 85 1.3 NNE 13 19 7 10 1007.4 1007.4 2.4
25/02:00pm 14.2 10.4 12.4 89 1.0 N 24 32 13 17 1007.3 1007.3 2.4
25/01:30pm 14.0 9.4 12.2 89 1.0 N 28 35 15 19 1007.9 1007.9 2.4
25/01:00pm 13.9 9.6 11.9 88 1.1 N 26 33 14 18 1008.6 1008.6 2.4
25/12:30pm 13.5 9.1 11.8 89 0.9 NNE 26 35 14 19 1008.8 1008.8 2.4
25/12:00pm 13.1 8.1 11.0 87 1.1 N 28 33 15 18 1009.3 1009.3 2.4
25/11:30am 12.6 7.6 10.9 89 0.9 NNE 28 35 15 19 1010.1 1010.1 2.4
25/11:16am 12.2 7.5 10.7 90 0.8 NNE 26 39 14 21 1010.6 1010.6 2.4
25/11:00am 12.1 6.6 10.4 89 0.9 N 30 35 16 19 1011.3 1011.3 2.2
25/10:30am 12.0 7.5 10.2 89 0.9 N 24 33 13 18 1011.6 1011.6 1.6
25/10:10am 11.8 7.0 10.2 90 0.8 N 26 35 14 19 1012.0 1012.0 1.4
25/10:00am 12.0 7.4 9.8 86 1.1 N 24 32 13 17 1012.1 1012.1 1.0
25/09:30am 12.0 6.7 9.8 86 1.1 NNE 28 37 15 20 1011.9 1011.9 0.6
25/09:00am 12.3 8.6 9.5 83 1.4 NNE 19 26 10 14 1012.6 1012.6 3.6
25/08:30am 12.3 8.4 9.5 83 1.4 N 20 26 11 14 1012.7 1012.7 3.0
25/08:00am 12.2 7.8 8.8 80 1.7 NNE 22 28 12 15 1012.6 1012.6 2.4
25/07:30am 12.4 7.8 8.1 75 2.1 NNE 22 26 12 14 1012.4 1012.4 2.2
25/07:00am 12.1 8.6 8.7 80 1.7 NE 17 19 9 10 1012.6 1012.6 2.2
25/06:30am 11.8 8.3 8.8 82 1.5 NE 17 20 9 11 1012.4 1012.4 2.0
25/06:00am 11.5 8.0 8.9 84 1.3 NE 17 20 9 11 1012.5 1012.5 2.0
25/05:30am 12.1 7.6 8.5 78 1.8 NNE 22 32 12 17 1013.3 1013.3 1.4
25/05:00am 12.4 8.6 7.7 73 2.3 NNE 17 22 9 12 1013.4 1013.4 1.2
25/04:30am 13.8 9.2 5.8 58 3.8 N 19 26 10 14 1013.5 1013.5 0.8
25/04:00am 14.2 9.6 5.5 56 4.1 NNE 19 26 10 14 1013.2 1013.2 0.6
25/03:30am 13.4 9.9 7.0 65 3.1 NNE 15 19 8 10 1013.4 1013.4 0.6
25/03:00am 14.3 11.1 6.7 60 3.7 NE 13 15 7 8 1013.8 1013.8 0.2
25/02:30am 15.0 11.5 5.5 53 4.5 NNE 13 17 7 9 1014.1 1014.1 0.2
25/02:00am 15.3 11.0 3.5 45 5.4 NNE 15 19 8 10 1013.8 1013.8 0.2
25/01:30am 15.7 10.6 0.6 36 6.5 NE 17 22 9 12 1013.0 1013.0 0.0
25/01:00am 16.3 10.7 -0.1 32 7.0 NE 19 24 10 13 1013.1 1013.1 0.0
25/12:30am 15.7 10.4 -0.5 33 6.8 NE 17 20 9 11 1013.6 1013.6 0.0
25/12:00am 13.9 8.5 1.4 42 5.4 NE 19 24 10 13 1013.9 1013.9 0.0

Latest Capital City Observations: Canberra | Sydney | Melbourne | Brisbane | Adelaide | Perth | Hobart | Darwin

Other Formats:

Comma delimited format used in spreadsheet applications
http://www.bom.gov.au/fwo/IDS60901/IDS60901.94672.axf

JavaScript Object Notation format (JSON) in row-major order
http://www.bom.gov.au/fwo/IDS60901/IDS60901.94672.json